createdAt,value
2024-05-09T00:00:06.366Z,14.50
2024-05-09T00:00:48.682Z,12.68
2024-05-09T00:01:28.547Z,15.10
2024-05-09T00:02:08.544Z,13.65
2024-05-09T00:02:48.576Z,13.07
2024-05-09T00:03:28.423Z,11.90
2024-05-09T00:04:08.520Z,15.43
2024-05-09T00:04:48.433Z,12.75
2024-05-09T00:05:28.449Z,15.75
2024-05-09T00:06:11.161Z,13.30
2024-05-09T00:06:50.942Z,14.75
2024-05-09T00:07:30.794Z,15.80
2024-05-09T00:08:12.201Z,16.38
2024-05-09T00:08:52.318Z,18.55
2024-05-09T00:09:32.039Z,12.40
2024-05-09T00:10:18.319Z,16.35
2024-05-09T00:11:05.915Z,13.32
2024-05-09T00:11:45.903Z,14.27
2024-05-09T00:12:25.783Z,14.52
2024-05-09T00:13:06.556Z,13.20
2024-05-09T00:13:47.195Z,14.65
2024-05-09T00:14:26.982Z,12.75
2024-05-09T00:15:07.264Z,11.25
2024-05-09T00:15:47.158Z,14.70
2024-05-09T00:16:27.561Z,15.00
2024-05-09T00:17:07.524Z,18.85
2024-05-09T00:17:47.550Z,12.82
2024-05-09T00:18:27.746Z,15.30
2024-05-09T00:19:08.150Z,11.48
2024-05-09T00:19:47.998Z,17.08
2024-05-09T00:20:37.087Z,11.40
2024-05-09T00:21:19.993Z,13.13
2024-05-09T00:22:00.288Z,14.98
2024-05-09T00:22:40.015Z,17.23
2024-05-09T00:23:19.906Z,13.65
2024-05-09T00:23:59.820Z,13.15
2024-05-09T00:24:39.916Z,15.25
2024-05-09T00:25:19.757Z,13.10
2024-05-09T00:25:59.601Z,14.43
2024-05-09T00:26:39.469Z,14.45
2024-05-09T00:27:19.604Z,13.77
2024-05-09T00:27:59.391Z,10.85
2024-05-09T00:28:39.279Z,13.18
2024-05-09T00:29:19.137Z,14.55
2024-05-09T00:29:59.072Z,12.60
2024-05-09T00:30:38.985Z,11.90
2024-05-09T00:31:18.829Z,12.98
2024-05-09T00:31:58.679Z,16.02
2024-05-09T00:32:39.031Z,12.88
2024-05-09T00:33:19.099Z,10.55
2024-05-09T00:33:59.354Z,13.00
2024-05-09T00:34:39.287Z,13.73
2024-05-09T00:35:20.054Z,12.60
2024-05-09T00:35:59.787Z,12.82
2024-05-09T00:36:39.559Z,14.82
2024-05-09T00:37:19.459Z,15.05
2024-05-09T00:37:59.668Z,13.20
2024-05-09T00:38:39.611Z,18.73
2024-05-09T00:39:19.332Z,13.32
2024-05-09T00:39:59.078Z,11.95
2024-05-09T00:40:42.627Z,10.98
2024-05-09T00:41:23.414Z,12.27
2024-05-09T00:42:03.209Z,12.07
2024-05-09T00:42:43.040Z,13.23
2024-05-09T00:43:23.052Z,12.25
2024-05-09T00:44:03.501Z,13.27
2024-05-09T00:44:43.351Z,12.55
2024-05-09T00:45:23.120Z,11.18
2024-05-09T00:46:03.363Z,14.57
2024-05-09T00:46:43.225Z,17.13
2024-05-09T00:47:25.101Z,15.73
2024-05-09T00:48:08.667Z,10.90
2024-05-09T00:49:30.468Z,14.15
2024-05-09T00:50:15.995Z,15.82
2024-05-09T00:51:03.299Z,14.63
2024-05-09T00:51:44.220Z,15.65
2024-05-09T00:52:24.014Z,14.45
2024-05-09T00:53:04.051Z,15.20
2024-05-09T00:53:44.221Z,14.95
2024-05-09T00:54:25.342Z,12.00
2024-05-09T00:55:05.158Z,12.88
2024-05-09T00:55:45.834Z,11.10
2024-05-09T00:56:26.389Z,14.85
2024-05-09T00:57:07.030Z,13.18
2024-05-09T00:57:46.889Z,12.27
2024-05-09T00:58:29.383Z,10.35
2024-05-09T00:59:09.887Z,14.50
2024-05-09T00:59:50.654Z,14.98
2024-05-09T01:01:18.631Z,14.98
2024-05-09T01:01:59.589Z,13.35
2024-05-09T01:02:40.329Z,15.63
2024-05-09T01:03:20.443Z,14.48
2024-05-09T01:04:01.623Z,13.10
2024-05-09T01:04:41.543Z,12.65
2024-05-09T01:05:21.429Z,14.32
2024-05-09T01:06:01.175Z,15.90
2024-05-09T01:06:41.001Z,13.50
2024-05-09T01:07:20.903Z,15.32
2024-05-09T01:08:01.349Z,12.73
2024-05-09T01:08:41.165Z,14.35
2024-05-09T01:09:20.908Z,15.07
2024-05-09T01:10:00.693Z,13.73
2024-05-09T01:10:44.164Z,13.75
2024-05-09T01:11:25.788Z,13.65
2024-05-09T01:12:05.932Z,14.45
2024-05-09T01:12:45.783Z,11.98
2024-05-09T01:13:25.918Z,12.48
2024-05-09T01:14:05.895Z,13.60
2024-05-09T01:14:45.861Z,13.13
2024-05-09T01:15:25.627Z,11.98
2024-05-09T01:16:06.649Z,14.18
2024-05-09T01:16:46.634Z,12.20
2024-05-09T01:17:27.062Z,12.75
2024-05-09T01:18:12.365Z,11.32
2024-05-09T01:18:53.646Z,14.57
2024-05-09T01:19:33.668Z,13.48
2024-05-09T01:20:20.000Z,14.35
2024-05-09T01:21:10.387Z,11.10
2024-05-09T01:21:50.587Z,14.63
2024-05-09T01:22:32.216Z,13.27
2024-05-09T01:23:12.572Z,13.85
2024-05-09T01:23:53.444Z,13.60
2024-05-09T01:24:33.286Z,14.50
2024-05-09T01:25:13.050Z,13.68
2024-05-09T01:25:52.757Z,12.10
2024-05-09T01:26:32.538Z,15.13
2024-05-09T01:27:12.522Z,12.32
2024-05-09T01:27:52.246Z,11.27
2024-05-09T01:28:31.956Z,14.55
2024-05-09T01:29:11.752Z,11.00
2024-05-09T01:29:51.956Z,14.05
2024-05-09T01:30:35.287Z,13.82
2024-05-09T01:31:17.093Z,12.13
2024-05-09T01:32:00.054Z,11.10
2024-05-09T01:32:40.288Z,12.73
2024-05-09T01:33:20.453Z,13.35
2024-05-09T01:34:00.600Z,14.23
2024-05-09T01:34:40.402Z,12.88
2024-05-09T01:35:24.628Z,13.80
2024-05-09T01:36:04.494Z,13.05
2024-05-09T01:36:44.207Z,15.15
2024-05-09T01:37:23.971Z,15.40
2024-05-09T01:38:04.452Z,14.77
2024-05-09T01:38:44.293Z,12.77
2024-05-09T01:39:24.696Z,12.32
2024-05-09T01:40:07.434Z,14.45
2024-05-09T01:40:50.540Z,11.80
2024-05-09T01:41:30.376Z,12.52
2024-05-09T01:42:10.115Z,12.93
2024-05-09T01:42:49.864Z,12.10
2024-05-09T01:43:30.265Z,13.98
2024-05-09T01:44:10.165Z,11.48
2024-05-09T01:44:49.942Z,15.68
2024-05-09T01:45:29.963Z,11.38
2024-05-09T01:46:17.933Z,14.02
2024-05-09T01:46:57.673Z,13.75
2024-05-09T01:47:37.807Z,15.23
2024-05-09T01:48:17.842Z,15.90
2024-05-09T01:48:58.580Z,15.88
2024-05-09T01:49:39.453Z,14.32
2024-05-09T01:50:28.934Z,14.25
2024-05-09T01:51:16.477Z,18.63
2024-05-09T01:51:56.733Z,13.18
2024-05-09T01:52:39.683Z,20.90
2024-05-09T01:53:19.591Z,12.55
2024-05-09T01:53:59.370Z,17.95
2024-05-09T01:54:39.223Z,13.40
2024-05-09T01:55:19.005Z,15.52
2024-05-09T01:55:58.806Z,17.33
2024-05-09T01:56:38.631Z,12.20
2024-05-09T01:57:18.979Z,13.32
2024-05-09T01:57:58.827Z,13.73
2024-05-09T01:58:39.666Z,16.45
2024-05-09T01:59:19.488Z,16.17
2024-05-09T02:00:00.054Z,15.75
2024-05-09T02:00:42.784Z,16.02
2024-05-09T02:01:23.351Z,14.18
2024-05-09T02:02:03.266Z,18.80
2024-05-09T02:02:46.751Z,13.98
2024-05-09T02:03:26.748Z,13.52
2024-05-09T02:04:06.978Z,13.35
2024-05-09T02:04:51.394Z,14.77
2024-05-09T02:05:31.705Z,13.98
2024-05-09T02:06:11.665Z,17.33
2024-05-09T02:06:51.461Z,16.25
2024-05-09T02:07:31.340Z,15.73
2024-05-09T02:08:19.341Z,12.60
2024-05-09T02:08:59.401Z,16.23
2024-05-09T02:09:39.175Z,16.15
2024-05-09T02:10:26.015Z,20.30
2024-05-09T02:11:11.900Z,12.75
2024-05-09T02:11:52.240Z,13.68
2024-05-09T02:12:32.668Z,15.88
2024-05-09T02:13:12.706Z,15.50
2024-05-09T02:13:52.802Z,14.88
2024-05-09T02:14:32.626Z,15.65
2024-05-09T02:15:12.381Z,15.90
2024-05-09T02:15:53.200Z,20.10
2024-05-09T02:16:33.380Z,17.83
2024-05-09T02:17:13.287Z,13.25
2024-05-09T02:17:53.401Z,19.90
2024-05-09T02:18:33.390Z,15.45
2024-05-09T02:19:13.467Z,15.45
2024-05-09T02:19:53.360Z,14.25
2024-05-09T02:20:36.433Z,17.20
2024-05-09T02:21:17.499Z,16.73
2024-05-09T02:21:57.672Z,18.40
2024-05-09T02:22:37.372Z,16.00
2024-05-09T02:23:17.264Z,14.35
2024-05-09T02:23:57.080Z,13.48
2024-05-09T02:24:37.181Z,14.52
2024-05-09T02:25:16.970Z,15.05
2024-05-09T02:25:56.967Z,16.02
2024-05-09T02:26:36.721Z,17.33
2024-05-09T02:27:16.953Z,16.60
2024-05-09T02:27:56.706Z,17.98
2024-05-09T02:28:36.440Z,12.98
2024-05-09T02:29:16.245Z,15.07
2024-05-09T02:29:56.568Z,13.82
2024-05-09T02:30:40.597Z,12.57
2024-05-09T02:31:21.895Z,14.82
2024-05-09T02:32:01.668Z,15.05
2024-05-09T02:32:41.960Z,15.25
2024-05-09T02:33:22.158Z,17.05
2024-05-09T02:34:02.437Z,14.48
2024-05-09T02:34:42.313Z,16.42
2024-05-09T02:35:22.394Z,13.52
2024-05-09T02:36:02.225Z,18.05
2024-05-09T02:36:41.982Z,14.02
2024-05-09T02:37:21.676Z,16.40
2024-05-09T02:38:02.020Z,16.10
2024-05-09T02:38:42.039Z,18.70
2024-05-09T02:39:21.872Z,14.90
2024-05-09T02:40:01.661Z,13.43
2024-05-09T02:40:41.916Z,15.80
2024-05-09T02:41:21.727Z,17.27
2024-05-09T02:42:01.477Z,13.57
2024-05-09T02:42:42.280Z,12.50
2024-05-09T02:43:22.167Z,17.27
2024-05-09T02:44:01.942Z,16.67
2024-05-09T02:44:41.736Z,18.67
2024-05-09T02:45:21.467Z,14.20
2024-05-09T02:46:01.752Z,14.98
2024-05-09T02:46:41.483Z,15.40
2024-05-09T02:47:21.578Z,18.05
2024-05-09T02:48:02.199Z,14.82
2024-05-09T02:48:42.741Z,16.42
2024-05-09T02:49:22.672Z,15.88
2024-05-09T02:50:03.050Z,14.52
2024-05-09T02:50:45.216Z,13.70
2024-05-09T02:51:25.152Z,13.82
2024-05-09T02:52:04.938Z,18.23
2024-05-09T02:52:44.749Z,14.65
2024-05-09T02:53:24.737Z,16.35
2024-05-09T02:54:04.691Z,14.68
2024-05-09T02:54:44.412Z,15.95
2024-05-09T02:55:24.345Z,14.60
2024-05-09T02:56:04.106Z,18.15
2024-05-09T02:56:44.191Z,14.90
2024-05-09T02:57:23.962Z,17.45
2024-05-09T02:58:03.762Z,13.95
2024-05-09T02:58:43.571Z,13.32
2024-05-09T02:59:23.992Z,15.23
2024-05-09T03:00:06.206Z,16.02
2024-05-09T03:00:47.542Z,16.50
2024-05-09T03:01:27.329Z,16.65
2024-05-09T03:02:07.398Z,13.77
2024-05-09T03:02:47.242Z,15.48
2024-05-09T03:03:27.497Z,15.85
2024-05-09T03:04:07.759Z,14.77
2024-05-09T03:04:47.974Z,16.30
2024-05-09T03:05:27.888Z,15.63
2024-05-09T03:06:07.746Z,14.02
2024-05-09T03:06:47.519Z,19.85
2024-05-09T03:07:27.525Z,14.88
2024-05-09T03:08:07.825Z,13.27
2024-05-09T03:08:49.895Z,16.63
2024-05-09T03:09:30.055Z,18.13
2024-05-09T03:10:18.275Z,16.13
2024-05-09T03:11:02.183Z,17.00
2024-05-09T03:11:42.091Z,17.45
2024-05-09T03:12:21.921Z,16.17
2024-05-09T03:13:02.025Z,19.65
2024-05-09T03:13:43.641Z,15.10
2024-05-09T03:14:23.821Z,15.73
2024-05-09T03:15:03.767Z,18.23
2024-05-09T03:15:44.706Z,16.67
2024-05-09T03:16:24.695Z,16.42
2024-05-09T03:17:04.600Z,18.33
2024-05-09T03:17:44.639Z,16.67
2024-05-09T03:18:25.245Z,18.85
2024-05-09T03:19:05.107Z,18.73
2024-05-09T03:19:44.909Z,13.70
2024-05-09T03:20:32.252Z,15.75
2024-05-09T03:21:14.454Z,18.40
2024-05-09T03:21:55.463Z,21.10
2024-05-09T03:22:35.269Z,17.33
2024-05-09T03:23:15.216Z,13.88
2024-05-09T03:23:55.543Z,17.85
2024-05-09T03:24:35.434Z,14.55
2024-05-09T03:25:15.288Z,15.23
2024-05-09T03:25:55.196Z,14.38
2024-05-09T03:26:35.727Z,15.93
2024-05-09T03:27:15.570Z,16.13
2024-05-09T03:27:55.844Z,15.38
2024-05-09T03:28:35.610Z,18.98
2024-05-09T03:29:15.657Z,19.63
2024-05-09T03:29:55.458Z,16.38
2024-05-09T03:30:40.670Z,16.77
2024-05-09T03:31:22.616Z,17.48
2024-05-09T03:32:02.767Z,18.98
2024-05-09T03:32:45.036Z,13.15
2024-05-09T03:33:25.006Z,16.95
2024-05-09T03:34:05.248Z,18.25
2024-05-09T03:34:45.257Z,15.40
2024-05-09T03:35:25.273Z,14.38
2024-05-09T03:36:09.108Z,13.25
2024-05-09T03:36:50.400Z,16.92
2024-05-09T03:37:30.409Z,15.15
2024-05-09T03:38:10.223Z,15.40
2024-05-09T03:38:51.819Z,17.17
2024-05-09T03:39:31.629Z,18.63
2024-05-09T03:40:17.731Z,14.18
2024-05-09T03:41:00.783Z,18.60
2024-05-09T03:41:40.699Z,17.48
2024-05-09T03:42:20.435Z,16.27
2024-05-09T03:43:00.467Z,14.45
2024-05-09T03:43:40.164Z,16.83
2024-05-09T03:44:20.428Z,15.23
2024-05-09T03:45:00.368Z,15.57
2024-05-09T03:45:40.677Z,18.92
2024-05-09T03:46:20.496Z,15.75
2024-05-09T03:47:00.241Z,15.80
2024-05-09T03:47:40.249Z,12.88
2024-05-09T03:48:21.635Z,14.20
2024-05-09T03:49:01.624Z,15.05
2024-05-09T03:49:41.673Z,15.23
2024-05-09T03:50:30.020Z,15.65
2024-05-09T03:51:13.921Z,14.77
2024-05-09T03:51:53.712Z,17.63
2024-05-09T03:52:33.582Z,16.38
2024-05-09T03:53:14.966Z,19.67
2024-05-09T03:53:55.132Z,14.82
2024-05-09T03:54:37.562Z,17.30
2024-05-09T03:55:18.081Z,18.70
2024-05-09T03:55:58.291Z,15.88
2024-05-09T03:56:38.907Z,19.40
2024-05-09T03:57:18.704Z,15.45
2024-05-09T03:57:58.670Z,14.93
2024-05-09T03:58:38.652Z,17.40
2024-05-09T03:59:19.382Z,14.50
2024-05-09T03:59:59.167Z,13.98
2024-05-09T04:00:40.238Z,15.05
2024-05-09T04:01:20.301Z,13.90
2024-05-09T04:02:00.557Z,15.73
2024-05-09T04:02:44.517Z,14.68
2024-05-09T04:03:24.586Z,15.98
2024-05-09T04:04:05.228Z,16.80
2024-05-09T04:04:46.020Z,15.73
2024-05-09T04:05:27.291Z,14.63
2024-05-09T04:06:07.767Z,19.05
2024-05-09T04:06:48.250Z,15.77
2024-05-09T04:07:28.062Z,16.23
2024-05-09T04:08:08.169Z,15.63
2024-05-09T04:08:48.047Z,13.95
2024-05-09T04:09:27.829Z,17.98
2024-05-09T04:10:16.985Z,16.75
2024-05-09T04:11:03.606Z,14.52
2024-05-09T04:11:43.693Z,13.43
2024-05-09T04:12:23.562Z,15.82
2024-05-09T04:13:04.611Z,16.52
2024-05-09T04:13:44.421Z,16.73
2024-05-09T04:14:24.587Z,15.98
2024-05-09T04:15:04.973Z,19.17
2024-05-09T04:15:44.983Z,19.45
2024-05-09T04:16:25.138Z,18.10
2024-05-09T04:17:05.027Z,19.25
2024-05-09T04:17:51.980Z,14.35
2024-05-09T04:18:32.026Z,14.45
2024-05-09T04:19:11.948Z,21.48
2024-05-09T04:19:51.809Z,16.30
2024-05-09T04:20:38.203Z,16.38
2024-05-09T04:21:20.440Z,16.08
2024-05-09T04:22:00.915Z,13.82
2024-05-09T04:22:40.865Z,13.05
2024-05-09T04:23:20.779Z,19.40
2024-05-09T04:24:00.822Z,18.00
2024-05-09T04:24:40.530Z,18.27
2024-05-09T04:25:20.311Z,17.98
2024-05-09T04:26:05.190Z,14.95
2024-05-09T04:26:45.318Z,19.00
2024-05-09T04:27:25.103Z,16.40
2024-05-09T04:28:05.085Z,15.30
2024-05-09T04:28:44.969Z,17.50
2024-05-09T04:29:25.042Z,14.52
2024-05-09T04:30:07.874Z,19.25
2024-05-09T04:30:49.719Z,20.00
2024-05-09T04:31:30.413Z,18.35
2024-05-09T04:32:10.654Z,19.23
2024-05-09T04:32:52.536Z,17.27
2024-05-09T04:33:32.597Z,16.50
2024-05-09T04:34:12.939Z,15.25
2024-05-09T04:34:53.037Z,17.45
2024-05-09T04:35:32.832Z,21.80
2024-05-09T04:36:12.791Z,18.27
2024-05-09T04:36:52.521Z,16.80
2024-05-09T04:37:32.535Z,15.65
2024-05-09T04:38:13.290Z,19.35
2024-05-09T04:38:53.358Z,19.20
2024-05-09T04:39:33.098Z,17.77
2024-05-09T04:40:24.086Z,16.75
2024-05-09T04:41:11.162Z,20.40
2024-05-09T04:41:50.959Z,16.08
2024-05-09T04:42:30.711Z,16.42
2024-05-09T04:43:21.475Z,16.63
2024-05-09T04:44:01.500Z,15.30
2024-05-09T04:44:41.272Z,20.60
2024-05-09T04:45:21.156Z,18.40
2024-05-09T04:46:01.257Z,14.13
2024-05-09T04:46:41.133Z,19.85
2024-05-09T04:47:21.057Z,22.08
2024-05-09T04:48:01.410Z,21.85
2024-05-09T04:48:42.245Z,19.08
2024-05-09T04:49:22.253Z,17.70
2024-05-09T04:50:02.574Z,15.75
2024-05-09T04:50:42.736Z,19.30
2024-05-09T04:51:23.048Z,15.27
2024-05-09T04:52:03.071Z,14.98
2024-05-09T04:52:42.856Z,19.88
2024-05-09T04:53:22.955Z,17.05
2024-05-09T04:54:03.246Z,18.95
2024-05-09T04:54:43.006Z,17.45
2024-05-09T04:55:22.916Z,19.73
2024-05-09T04:56:02.624Z,21.08
2024-05-09T04:56:42.859Z,15.82
2024-05-09T04:57:22.657Z,21.98
2024-05-09T04:58:02.654Z,19.90
2024-05-09T04:58:42.394Z,16.90
2024-05-09T04:59:22.994Z,23.45
2024-05-09T05:00:07.218Z,16.40
2024-05-09T05:00:49.659Z,16.08
2024-05-09T05:01:29.585Z,15.23
2024-05-09T05:02:09.702Z,18.45
2024-05-09T05:02:49.740Z,17.75
2024-05-09T05:03:29.744Z,15.88
2024-05-09T05:04:09.773Z,17.73
2024-05-09T05:04:50.090Z,20.00
2024-05-09T05:05:29.992Z,17.92
2024-05-09T05:06:10.427Z,19.20
2024-05-09T05:06:50.298Z,19.05
2024-05-09T05:08:01.797Z,17.10
2024-05-09T05:08:41.648Z,17.15
2024-05-09T05:09:21.629Z,14.35
2024-05-09T05:10:01.739Z,14.50
2024-05-09T05:10:41.959Z,16.17
2024-05-09T05:11:21.833Z,15.77
2024-05-09T05:12:03.825Z,15.93
2024-05-09T05:13:02.651Z,13.23
2024-05-09T05:13:44.503Z,17.08
2024-05-09T05:14:24.549Z,17.42
2024-05-09T05:15:04.307Z,17.23
2024-05-09T05:16:20.629Z,14.63
2024-05-09T05:17:18.803Z,16.75
2024-05-09T05:17:58.995Z,20.40
2024-05-09T05:18:39.064Z,17.40
2024-05-09T05:19:18.992Z,16.02
2024-05-09T05:19:59.624Z,14.90
2024-05-09T05:20:40.326Z,22.35
2024-05-09T05:21:20.913Z,18.65
2024-05-09T05:22:01.000Z,14.73
2024-05-09T05:22:44.115Z,14.60
2024-05-09T05:23:25.042Z,15.95
2024-05-09T05:24:07.130Z,16.42
2024-05-09T05:24:47.012Z,14.13
2024-05-09T05:25:26.898Z,19.33
2024-05-09T05:26:07.284Z,17.58
2024-05-09T05:26:47.578Z,13.50
2024-05-09T05:27:27.533Z,19.35
2024-05-09T05:28:07.693Z,17.10
2024-05-09T05:28:48.288Z,16.63
2024-05-09T05:29:28.230Z,13.70
2024-05-09T05:30:14.656Z,20.83
2024-05-09T05:30:57.829Z,17.50
2024-05-09T05:31:37.599Z,14.43
2024-05-09T05:32:18.157Z,20.98
2024-05-09T05:32:58.263Z,19.55
2024-05-09T05:33:38.453Z,17.40
2024-05-09T05:34:18.322Z,20.30
2024-05-09T05:34:58.506Z,22.63
2024-05-09T05:35:38.752Z,15.07
2024-05-09T05:36:18.475Z,17.23
2024-05-09T05:36:58.482Z,15.18
2024-05-09T05:37:39.244Z,16.73
2024-05-09T05:38:21.227Z,15.15
2024-05-09T05:39:02.414Z,20.85
2024-05-09T05:39:42.592Z,17.23
2024-05-09T05:40:32.079Z,14.57
2024-05-09T05:41:15.732Z,14.27
2024-05-09T05:41:55.628Z,15.75
2024-05-09T05:42:35.423Z,20.25
2024-05-09T05:43:20.123Z,18.13
2024-05-09T05:44:00.077Z,21.13
2024-05-09T05:44:40.006Z,19.08
2024-05-09T05:45:20.068Z,20.05
2024-05-09T05:46:00.060Z,15.75
2024-05-09T05:46:39.839Z,16.38
2024-05-09T05:47:19.846Z,15.68
2024-05-09T05:48:00.956Z,15.98
2024-05-09T05:48:41.639Z,15.10
2024-05-09T05:49:21.752Z,16.73
2024-05-09T05:50:01.863Z,15.63
2024-05-09T05:50:41.961Z,19.08
2024-05-09T05:51:22.128Z,16.27
2024-05-09T05:52:01.969Z,18.55
2024-05-09T05:52:42.915Z,16.55
2024-05-09T05:53:22.970Z,16.65
2024-05-09T05:54:03.004Z,20.15
2024-05-09T05:54:42.810Z,20.63
2024-05-09T05:55:22.816Z,15.63
2024-05-09T05:56:02.647Z,16.98
2024-05-09T05:56:43.015Z,14.95
2024-05-09T05:57:22.810Z,18.05
2024-05-09T05:58:03.871Z,15.70
2024-05-09T05:58:44.213Z,15.60
2024-05-09T05:59:25.010Z,17.65
2024-05-09T06:00:09.382Z,19.17
2024-05-09T06:00:54.545Z,15.85
2024-05-09T06:01:34.717Z,17.70
2024-05-09T06:02:14.977Z,15.30
2024-05-09T06:02:54.954Z,19.27
2024-05-09T06:03:34.971Z,15.70
2024-05-09T06:04:14.828Z,16.05
2024-05-09T06:04:55.136Z,16.77
2024-05-09T06:05:36.187Z,12.73
2024-05-09T06:06:16.187Z,18.33
2024-05-09T06:06:55.958Z,19.92
2024-05-09T06:07:35.931Z,16.27
2024-05-09T06:08:15.953Z,19.92
2024-05-09T06:08:56.276Z,15.18
2024-05-09T06:09:36.490Z,16.50
2024-05-09T06:10:21.498Z,16.73
2024-05-09T06:11:05.710Z,18.67
2024-05-09T06:11:45.714Z,15.20
2024-05-09T06:12:25.741Z,18.50
2024-05-09T06:13:06.469Z,16.48
2024-05-09T06:13:46.323Z,15.40
2024-05-09T06:14:26.680Z,16.75
2024-05-09T06:15:07.359Z,16.50
2024-05-09T06:15:47.523Z,15.45
2024-05-09T06:16:27.288Z,18.33
2024-05-09T06:17:07.133Z,21.70
2024-05-09T06:17:47.078Z,16.73
2024-05-09T06:18:27.578Z,14.88
2024-05-09T06:19:07.727Z,18.17
2024-05-09T06:19:47.820Z,19.90
2024-05-09T06:20:35.440Z,18.40
2024-05-09T06:21:21.169Z,21.58
2024-05-09T06:22:01.106Z,20.60
2024-05-09T06:22:40.957Z,22.35
2024-05-09T06:23:21.759Z,21.63
2024-05-09T06:24:03.799Z,16.50
2024-05-09T06:24:45.109Z,18.08
2024-05-09T06:25:24.890Z,21.67
2024-05-09T06:26:06.597Z,24.13
2024-05-09T06:26:47.450Z,22.10
2024-05-09T06:27:27.356Z,20.58
2024-05-09T06:28:07.497Z,19.95
2024-05-09T06:28:47.544Z,19.40
2024-05-09T06:29:27.630Z,25.80
2024-05-09T06:30:09.985Z,15.30
2024-05-09T06:30:51.898Z,21.42
2024-05-09T06:31:31.812Z,19.67
2024-05-09T06:32:11.918Z,19.00
2024-05-09T06:32:51.966Z,19.75
2024-05-09T06:33:31.962Z,20.45
2024-05-09T06:34:12.397Z,21.38
2024-05-09T06:34:52.860Z,20.17
2024-05-09T06:35:32.825Z,18.08
2024-05-09T06:36:12.932Z,17.33
2024-05-09T06:36:52.686Z,16.52
2024-05-09T06:37:32.688Z,18.83
2024-05-09T06:38:12.725Z,21.77
2024-05-09T06:38:52.607Z,18.30
2024-05-09T06:39:35.408Z,19.90
2024-05-09T06:40:21.179Z,18.23
2024-05-09T06:41:05.382Z,17.00
2024-05-09T06:41:45.172Z,16.15
2024-05-09T06:42:24.985Z,16.33
2024-05-09T06:43:05.152Z,18.50
2024-05-09T06:43:45.141Z,14.10
2024-05-09T06:44:25.002Z,19.85
2024-05-09T06:45:04.970Z,12.00
2024-05-09T06:45:45.132Z,17.58
2024-05-09T06:46:26.326Z,14.32
2024-05-09T06:47:06.345Z,21.52
2024-05-09T06:47:46.302Z,17.08
2024-05-09T06:48:26.827Z,15.20
2024-05-09T06:49:09.323Z,10.20
2024-05-09T06:49:49.345Z,7.95
2024-05-09T06:50:36.825Z,10.90
2024-05-09T06:51:18.361Z,10.25
2024-05-09T06:51:58.124Z,12.00
2024-05-09T06:52:37.931Z,11.48
2024-05-09T06:53:18.519Z,10.20
2024-05-09T06:53:58.741Z,10.82
2024-05-09T06:54:38.882Z,10.95
2024-05-09T06:55:18.600Z,15.07
2024-05-09T06:55:58.363Z,9.35
2024-05-09T06:57:12.366Z,10.05
2024-05-09T06:57:52.275Z,20.20
2024-05-09T06:58:32.038Z,21.70
2024-05-09T06:59:12.079Z,18.63
2024-05-09T06:59:51.804Z,15.32
2024-05-09T07:00:38.541Z,11.63
2024-05-09T07:01:21.702Z,9.55
2024-05-09T07:02:01.742Z,11.07
2024-05-09T07:02:41.641Z,10.52
2024-05-09T07:03:21.705Z,11.10
2024-05-09T07:04:01.764Z,13.30
2024-05-09T07:04:41.781Z,11.45
2024-05-09T07:05:21.593Z,10.75
2024-05-09T07:06:01.692Z,10.20
2024-05-09T07:06:41.490Z,10.48
2024-05-09T07:07:21.539Z,8.27
2024-05-09T07:08:16.878Z,8.93
2024-05-09T07:08:56.791Z,8.80
2024-05-09T07:09:36.968Z,9.52
2024-05-09T07:10:22.156Z,7.13
2024-05-09T07:11:08.568Z,8.02
2024-05-09T07:11:48.554Z,8.52
2024-05-09T07:12:28.488Z,7.78
2024-05-09T07:13:12.552Z,8.63
2024-05-09T07:13:52.963Z,8.52
2024-05-09T07:14:33.977Z,8.80
2024-05-09T07:15:14.565Z,7.07
2024-05-09T07:15:54.699Z,8.02
2024-05-09T07:16:34.742Z,7.60
2024-05-09T07:17:15.201Z,9.60
2024-05-09T07:17:55.233Z,6.32
2024-05-09T07:18:37.252Z,13.93
2024-05-09T07:19:17.435Z,8.52
2024-05-09T07:19:57.361Z,8.35
2024-05-09T07:20:37.183Z,8.70
2024-05-09T07:21:17.446Z,8.50
2024-05-09T07:21:57.368Z,7.68
2024-05-09T07:22:37.098Z,8.27
2024-05-09T07:23:17.243Z,9.80
2024-05-09T07:23:58.448Z,9.95
2024-05-09T07:24:39.149Z,7.60
2024-05-09T07:25:18.943Z,7.55
2024-05-09T07:25:59.121Z,10.07
2024-05-09T07:26:39.393Z,8.57
2024-05-09T07:27:19.326Z,9.73
2024-05-09T07:27:59.185Z,5.97
2024-05-09T07:28:39.007Z,9.20
2024-05-09T07:29:18.967Z,10.00
2024-05-09T07:29:58.946Z,9.18
2024-05-09T07:30:38.732Z,7.30
2024-05-09T07:31:18.460Z,6.63
2024-05-09T07:31:58.684Z,8.93
2024-05-09T07:32:38.656Z,12.32
2024-05-09T07:33:23.567Z,10.38
2024-05-09T07:34:04.280Z,10.02
2024-05-09T07:34:44.203Z,6.53
2024-05-09T07:35:24.207Z,11.52
2024-05-09T07:36:03.980Z,5.55
2024-05-09T07:36:44.185Z,8.55
2024-05-09T07:37:24.621Z,9.45
2024-05-09T07:38:04.916Z,303.92
2024-05-09T07:38:44.702Z,395.27
2024-05-09T07:39:25.523Z,182.40
2024-05-09T07:40:07.636Z,158.45
2024-05-09T07:40:47.685Z,63.63
2024-05-09T07:41:27.673Z,88.35
2024-05-09T07:42:07.711Z,51.10
2024-05-09T07:42:47.752Z,54.50
2024-05-09T07:43:28.968Z,70.20
2024-05-09T07:44:08.792Z,86.65
2024-05-09T07:44:48.608Z,153.73
2024-05-09T07:45:45.068Z,175.65
2024-05-09T07:47:36.781Z,35.35
2024-05-09T07:49:44.757Z,10.32
2024-05-09T07:50:55.698Z,12.13
2024-05-09T07:53:37.179Z,7.05
2024-05-09T07:54:12.313Z,9.88
2024-05-09T07:54:52.308Z,7.00
2024-05-09T07:55:32.372Z,12.57
2024-05-09T07:56:12.758Z,9.63
2024-05-09T07:56:53.455Z,9.02
2024-05-09T07:57:33.399Z,9.55
2024-05-09T07:58:13.158Z,11.07
2024-05-09T07:58:54.774Z,9.98
2024-05-09T07:59:37.912Z,7.40
2024-05-09T08:00:23.689Z,6.32
2024-05-09T08:01:09.564Z,9.55
2024-05-09T08:01:49.864Z,11.75
2024-05-09T08:02:30.799Z,9.35
2024-05-09T08:03:12.232Z,10.07
2024-05-09T08:03:52.288Z,9.02
2024-05-09T08:04:32.397Z,10.20
2024-05-09T08:05:12.741Z,9.00
2024-05-09T08:05:53.206Z,9.13
2024-05-09T08:06:33.312Z,10.05
2024-05-09T08:07:13.094Z,8.23
2024-05-09T08:07:53.853Z,9.55
2024-05-09T08:08:33.622Z,10.30
2024-05-09T08:09:53.498Z,7.82
2024-05-09T08:10:36.084Z,8.13
2024-05-09T08:11:16.103Z,7.35
2024-05-09T08:11:55.996Z,8.38
2024-05-09T08:12:35.915Z,14.07
2024-05-09T08:13:16.362Z,8.52
2024-05-09T08:13:56.198Z,8.90
2024-05-09T08:14:36.096Z,7.95
2024-05-09T08:15:15.890Z,8.05
2024-05-09T08:15:56.220Z,11.00
2024-05-09T08:16:36.028Z,8.40
2024-05-09T08:17:15.794Z,12.88
2024-05-09T08:17:55.632Z,11.07
2024-05-09T08:18:35.932Z,9.73
2024-05-09T08:19:16.055Z,15.95
2024-05-09T08:19:57.061Z,10.02
2024-05-09T08:20:38.559Z,7.65
2024-05-09T08:21:20.229Z,8.32
2024-05-09T08:22:00.117Z,8.52
2024-05-09T08:22:39.831Z,13.98
2024-05-09T08:23:19.742Z,11.45
2024-05-09T08:24:01.177Z,14.43
2024-05-09T08:24:40.956Z,6.93
2024-05-09T08:25:20.724Z,11.50
2024-05-09T08:26:00.484Z,10.07
2024-05-09T08:26:40.431Z,10.15
2024-05-09T08:27:20.346Z,8.13
2024-05-09T08:28:00.203Z,9.65
2024-05-09T08:28:39.966Z,9.15
2024-05-09T08:29:20.254Z,8.25
2024-05-09T08:30:00.355Z,8.60
2024-05-09T08:30:40.385Z,8.88
2024-05-09T08:31:20.318Z,12.20
2024-05-09T08:32:00.658Z,12.55
2024-05-09T08:32:42.194Z,13.65
2024-05-09T08:33:22.073Z,13.50
2024-05-09T08:34:02.193Z,16.00
2024-05-09T08:34:42.663Z,9.48
2024-05-09T08:35:22.442Z,8.63
2024-05-09T08:36:02.355Z,10.02
2024-05-09T08:36:43.231Z,9.60
2024-05-09T08:37:27.819Z,12.57
2024-05-09T08:38:11.347Z,8.45
2024-05-09T08:38:51.114Z,8.80
2024-05-09T08:39:31.018Z,9.88
2024-05-09T08:40:23.593Z,9.27
2024-05-09T08:41:08.714Z,10.82
2024-05-09T08:41:55.128Z,12.15
2024-05-09T08:42:36.583Z,10.43
2024-05-09T08:43:21.305Z,8.85
2024-05-09T08:44:01.237Z,9.95
2024-05-09T08:44:41.092Z,9.82
2024-05-09T08:45:24.017Z,9.38
2024-05-09T08:46:07.200Z,7.35
2024-05-09T08:46:49.678Z,9.15
2024-05-09T08:47:34.027Z,11.68
2024-05-09T08:48:16.451Z,9.45
2024-05-09T08:48:59.234Z,10.05
2024-05-09T08:49:41.412Z,8.50
2024-05-09T08:50:31.991Z,9.63
2024-05-09T08:51:18.045Z,12.77
2024-05-09T08:51:57.980Z,11.23
2024-05-09T08:52:38.669Z,11.13
2024-05-09T08:53:18.549Z,11.40
2024-05-09T08:53:58.408Z,9.57
2024-05-09T08:54:38.390Z,7.70
2024-05-09T08:55:18.230Z,8.93
2024-05-09T08:56:03.567Z,12.05
2024-05-09T08:56:49.821Z,9.98
2024-05-09T08:57:37.438Z,11.82